Strona główna
METAR-TAF:

METAR-TAF

Lotnisko :

Cape May County Airport

Wildwood, New Jersey, Stany Zjednoczone

Szerokość geograficzna: 39-01N, Długość geograficzna: 074-55W, wysokość: 7 m

Aktualna obserwacja pogody

Raport powstał 39 minut temu, godzina 08:56 UTC
Wiatr 12 kt od zachód w porywach dochodzący do 20 kt
Temperatura 1°C
Wilgotność 47%
Ciśnienie 1015 hPa
Widzialność: 16.1 km
bezchmurnie

METAR: KWWD 280856Z AUTO 26012G20KT 10SM CLR 01/M09 A2996 RMK AO2 PK WND 27026/0801 SLP147 T00111094 56003 FZRANO

czas: 04:35 (09:35 UTC)


TAF: brakujący

Obserwacja i prognoza pogody dla ponad 4000 lotnisk (raport METAR i TAF).

Dostępne stacje oznaczono żółtymi i czerwonymi punktami na mapie.

Najedź kursorem aby zobaczyć nazwę stacji.

Kliknij aby zobaczyć obserwacje i prognozy pogody.

Aby zmienić mapę: kliknij na zielony przycisk z czarnym krzyżykiem, aby powiększyć; na zielony przycisk z myślnikiem, aby pomniejszyć; na zielone strzałki, aby przejść do map sąsiednich.


METAR-TAF: